createdAt,value
2019-03-01T00:02:07.828Z,14.20
2019-03-01T00:07:38.956Z,13.97
2019-03-01T00:13:12.062Z,12.77
2019-03-01T00:18:40.828Z,13.30
2019-03-01T00:24:22.678Z,13.10
2019-03-01T00:29:54.209Z,13.57
2019-03-01T00:35:24.770Z,14.23
2019-03-01T00:40:48.101Z,14.57
2019-03-01T00:45:43.450Z,14.80
2019-03-01T00:50:38.433Z,15.00
2019-03-01T00:55:33.684Z,13.97
2019-03-01T01:00:35.856Z,14.80
2019-03-01T01:05:30.780Z,15.97
2019-03-01T01:10:25.655Z,15.17
2019-03-01T01:15:21.010Z,16.13
2019-03-01T01:20:16.032Z,15.87
2019-03-01T01:25:11.021Z,15.07
2019-03-01T01:30:06.457Z,15.97
2019-03-01T01:35:08.477Z,17.20
2019-03-01T01:40:04.554Z,16.10
2019-03-01T01:45:00.340Z,15.77
2019-03-01T01:49:55.347Z,16.20
2019-03-01T01:54:50.859Z,14.87
2019-03-01T01:59:45.937Z,13.17
2019-03-01T02:04:40.926Z,10.80
2019-03-01T02:09:36.279Z,9.77
2019-03-01T02:14:31.284Z,8.90
2019-03-01T02:19:26.289Z,8.53
2019-03-01T02:24:21.639Z,8.40
2019-03-01T02:29:16.827Z,8.70
2019-03-01T02:34:11.800Z,8.40
2019-03-01T02:39:07.162Z,8.53
2019-03-01T02:44:02.127Z,6.30
2019-03-01T02:48:57.024Z,6.00
2019-03-01T02:53:52.590Z,6.00
2019-03-01T02:58:47.512Z,5.10
2019-03-01T03:03:42.448Z,5.23
2019-03-01T03:08:37.424Z,4.70
2019-03-01T03:13:32.473Z,5.00
2019-03-01T03:18:27.409Z,4.47
2019-03-01T03:23:22.510Z,4.57
2019-03-01T03:28:22.680Z,4.97
2019-03-01T03:33:29.102Z,4.93
2019-03-01T03:38:24.162Z,5.10
2019-03-01T03:43:19.071Z,6.40
2019-03-01T03:48:14.120Z,5.93
2019-03-01T03:53:09.143Z,5.10
2019-03-01T03:58:04.276Z,6.43
2019-03-01T04:02:59.699Z,5.57
2019-03-01T04:07:54.863Z,7.13
2019-03-01T04:12:50.197Z,6.20
2019-03-01T04:17:54.562Z,6.80
2019-03-01T04:22:49.531Z,7.57
2019-03-01T04:27:44.654Z,7.40
2019-03-01T04:32:39.613Z,8.00
2019-03-01T04:37:34.534Z,8.67
2019-03-01T04:42:29.565Z,8.87
2019-03-01T04:47:24.494Z,8.93
2019-03-01T04:52:33.574Z,9.80
2019-03-01T04:57:28.951Z,9.57
2019-03-01T05:02:23.915Z,9.53
2019-03-01T05:07:18.799Z,9.83
2019-03-01T05:12:13.777Z,10.33
2019-03-01T05:17:08.697Z,10.30
2019-03-01T05:22:13.347Z,10.87
2019-03-01T05:27:08.467Z,11.03
2019-03-01T05:32:03.599Z,10.67
2019-03-01T05:36:58.667Z,9.90
2019-03-01T05:41:53.854Z,9.17
2019-03-01T05:46:48.714Z,8.57
2019-03-01T05:51:48.093Z,8.33
2019-03-01T05:56:42.967Z,7.67
2019-03-01T06:02:33.567Z,7.70
2019-03-01T06:08:04.743Z,7.70
2019-03-01T06:13:38.358Z,6.67
2019-03-01T06:19:12.580Z,7.30
2019-03-01T06:24:36.939Z,6.47
2019-03-01T06:29:59.895Z,7.00
2019-03-01T06:35:35.161Z,6.87
2019-03-01T06:41:20.991Z,6.63
2019-03-01T06:46:40.596Z,7.37
2019-03-01T06:51:37.414Z,7.87
2019-03-01T06:56:32.376Z,7.30
2019-03-01T07:01:32.145Z,7.30
2019-03-01T07:06:27.067Z,7.57
2019-03-01T07:11:22.077Z,7.50
2019-03-01T07:16:17.577Z,7.47
2019-03-01T07:21:12.505Z,7.00
2019-03-01T07:26:07.435Z,7.17
2019-03-01T07:31:03.058Z,7.43
2019-03-01T07:35:57.929Z,7.90
2019-03-01T07:40:52.887Z,7.53
2019-03-01T07:45:47.757Z,8.07
2019-03-01T07:50:42.931Z,8.97
2019-03-01T07:55:37.863Z,8.33
2019-03-01T08:00:32.868Z,7.87
2019-03-01T08:05:27.676Z,7.23
2019-03-01T08:10:23.488Z,7.03
2019-03-01T08:15:18.418Z,7.40
2019-03-01T08:20:14.932Z,6.77
2019-03-01T08:25:10.995Z,7.43
2019-03-01T08:30:10.516Z,7.07
2019-03-01T08:35:11.411Z,6.90
2019-03-01T08:40:11.468Z,7.70
2019-03-01T08:45:06.127Z,7.30
2019-03-01T08:50:01.090Z,7.47
2019-03-01T08:55:00.006Z,6.47
2019-03-01T08:59:54.388Z,7.60
2019-03-01T09:04:51.199Z,6.57
2019-03-01T09:09:45.774Z,6.13
2019-03-01T09:14:40.675Z,6.30
2019-03-01T09:19:35.634Z,5.37
2019-03-01T09:24:30.554Z,5.70
2019-03-01T09:29:25.572Z,5.63
2019-03-01T09:34:20.466Z,5.43
2019-03-01T09:39:18.106Z,5.17
2019-03-01T09:44:13.260Z,4.77
2019-03-01T09:49:08.190Z,5.57
2019-03-01T09:54:06.517Z,4.63
2019-03-01T09:59:00.413Z,4.23
2019-03-01T10:03:56.356Z,4.60
2019-03-01T10:08:51.405Z,3.83
2019-03-01T10:13:46.282Z,4.00
2019-03-01T10:18:41.229Z,4.00
2019-03-01T10:23:36.102Z,3.30
2019-03-01T10:28:31.040Z,3.07
2019-03-01T10:33:25.927Z,3.40
2019-03-01T10:38:21.942Z,3.00
2019-03-01T10:43:16.907Z,2.60
2019-03-01T10:48:19.616Z,2.60
2019-03-01T10:53:14.638Z,2.20
2019-03-01T10:58:09.703Z,2.50
2019-03-01T11:03:04.830Z,2.70
2019-03-01T11:08:04.848Z,4.17
2019-03-01T11:12:59.884Z,2.87
2019-03-01T11:17:55.180Z,2.43
2019-03-01T11:22:50.123Z,2.80
2019-03-01T11:27:45.131Z,3.43
2019-03-01T11:32:39.957Z,2.87
2019-03-01T11:37:35.451Z,2.90
2019-03-01T11:42:30.290Z,3.30
2019-03-01T11:47:25.139Z,3.10
2019-03-01T11:52:20.020Z,3.43
2019-03-01T11:57:15.024Z,3.10
2019-03-01T12:02:10.383Z,3.30
2019-03-01T12:07:09.879Z,2.30
2019-03-01T12:12:06.858Z,2.90
2019-03-01T12:17:01.877Z,2.80
2019-03-01T12:21:56.852Z,3.63
2019-03-01T12:26:54.087Z,3.83
2019-03-01T12:31:48.998Z,3.80
2019-03-01T12:36:44.176Z,4.40
2019-03-01T12:41:39.129Z,4.60
2019-03-01T12:46:34.319Z,4.80
2019-03-01T12:51:29.190Z,4.53
2019-03-01T12:56:24.053Z,4.20
2019-03-01T13:01:18.916Z,4.60
2019-03-01T13:06:14.114Z,4.70
2019-03-01T13:11:08.988Z,5.07
2019-03-01T13:16:03.946Z,4.07
2019-03-01T13:21:04.895Z,4.57
2019-03-01T13:26:02.894Z,4.40
2019-03-01T13:30:56.884Z,4.27
2019-03-01T13:35:51.773Z,4.60
2019-03-01T13:40:46.638Z,4.93
2019-03-01T13:45:41.771Z,4.90
2019-03-01T13:50:38.288Z,5.33
2019-03-01T13:55:33.406Z,6.47
2019-03-01T14:00:28.476Z,6.20
2019-03-01T14:05:23.364Z,5.63
2019-03-01T14:10:19.683Z,5.40
2019-03-01T14:15:16.001Z,4.83
2019-03-01T14:20:19.079Z,5.43
2019-03-01T14:25:10.247Z,6.17
2019-03-01T14:30:06.030Z,5.83
2019-03-01T14:35:04.077Z,5.87
2019-03-01T14:39:59.242Z,4.87
2019-03-01T14:44:54.349Z,5.27
2019-03-01T14:49:49.262Z,5.20
2019-03-01T14:54:45.163Z,4.90
2019-03-01T15:00:19.394Z,15.13
2019-03-01T15:05:17.823Z,5.60
2019-03-01T15:10:12.166Z,6.50
2019-03-01T15:15:08.353Z,3.00
2019-03-01T15:20:03.416Z,4.93
2019-03-01T15:24:58.303Z,5.80
2019-03-01T15:29:53.181Z,5.70
2019-03-01T15:34:48.436Z,5.93
2019-03-01T15:39:43.428Z,6.80
2019-03-01T15:44:39.944Z,7.30
2019-03-01T15:49:34.827Z,6.80
2019-03-01T15:54:32.438Z,7.77
2019-03-01T15:59:26.300Z,7.40
2019-03-01T16:04:23.532Z,8.47
2019-03-01T16:09:21.829Z,9.00
2019-03-01T16:14:15.530Z,9.33
2019-03-01T16:19:11.166Z,9.87
2019-03-01T16:24:08.177Z,9.40
2019-03-01T16:29:07.346Z,10.17
2019-03-01T16:34:04.273Z,9.83
2019-03-01T16:38:57.713Z,9.67
2019-03-01T16:43:57.523Z,10.93
2019-03-01T16:48:53.066Z,10.90
2019-03-01T16:53:48.027Z,11.67
2019-03-01T16:58:42.966Z,12.30
2019-03-01T17:03:38.238Z,12.03
2019-03-01T17:08:36.409Z,12.10
2019-03-01T17:13:33.184Z,12.47
2019-03-01T17:18:28.076Z,12.90
2019-03-01T17:23:22.971Z,12.47
2019-03-01T17:28:23.516Z,12.30
2019-03-01T17:33:14.588Z,12.87
2019-03-01T17:38:09.657Z,13.03
2019-03-01T17:43:04.565Z,13.77
2019-03-01T17:47:59.499Z,14.40
2019-03-01T17:52:54.405Z,15.17
2019-03-01T17:57:50.279Z,15.27
2019-03-01T18:02:45.263Z,15.93
2019-03-01T18:07:40.143Z,16.83
2019-03-01T18:12:34.994Z,16.50
2019-03-01T18:17:33.013Z,18.80
2019-03-01T18:22:27.619Z,18.53
2019-03-01T18:27:22.886Z,17.97
2019-03-01T18:32:17.756Z,18.20
2019-03-01T18:37:19.453Z,18.63
2019-03-01T18:42:11.930Z,18.30
2019-03-01T18:47:07.217Z,18.97
2019-03-01T18:52:07.973Z,18.20
2019-03-01T18:57:03.795Z,17.27
2019-03-01T19:02:00.897Z,17.83
2019-03-01T19:06:55.980Z,16.93
2019-03-01T19:11:51.605Z,17.07
2019-03-01T19:16:48.553Z,16.90
2019-03-01T19:21:43.676Z,17.70
2019-03-01T19:26:38.595Z,16.80
2019-03-01T19:31:33.529Z,18.13
2019-03-01T19:36:28.497Z,17.57
2019-03-01T19:41:23.727Z,21.57
2019-03-01T19:46:19.120Z,19.47
2019-03-01T19:51:17.238Z,18.33
2019-03-01T19:56:14.247Z,17.30
2019-03-01T20:01:17.980Z,17.93
2019-03-01T20:06:12.198Z,16.07
2019-03-01T20:11:07.535Z,18.13
2019-03-01T20:16:03.033Z,16.40
2019-03-01T20:20:58.136Z,16.67
2019-03-01T20:25:53.559Z,16.67
2019-03-01T20:30:48.516Z,16.57
2019-03-01T20:35:43.508Z,17.27
2019-03-01T20:40:38.461Z,16.57
2019-03-01T20:45:34.804Z,18.30
2019-03-01T20:50:29.875Z,17.03
2019-03-01T20:55:24.840Z,18.10
2019-03-01T21:00:22.663Z,18.07
2019-03-01T21:05:16.577Z,17.10
2019-03-01T21:10:16.050Z,17.70
2019-03-01T21:15:10.988Z,17.60
2019-03-01T21:20:06.910Z,19.10
2019-03-01T21:25:03.158Z,18.67
2019-03-01T21:30:26.547Z,21.73
2019-03-01T21:35:21.644Z,20.07
2019-03-01T21:40:17.199Z,18.83
2019-03-01T21:45:30.567Z,20.77
2019-03-01T21:50:25.554Z,20.03
2019-03-01T21:55:25.004Z,19.60
2019-03-01T22:00:25.489Z,22.60
2019-03-01T22:05:27.940Z,21.20
2019-03-01T22:10:22.957Z,20.63
2019-03-01T22:15:21.481Z,19.37
2019-03-01T22:20:17.070Z,19.80
2019-03-01T22:25:12.296Z,21.33
2019-03-01T22:30:09.195Z,21.57
2019-03-01T22:35:08.561Z,22.00
2019-03-01T22:40:01.355Z,20.97
2019-03-01T22:44:56.344Z,19.80
2019-03-01T22:49:51.345Z,21.37
2019-03-01T22:54:46.383Z,21.33
2019-03-01T22:59:43.628Z,21.43
2019-03-01T23:04:38.245Z,20.20
2019-03-01T23:09:33.144Z,20.87
2019-03-01T23:14:30.734Z,21.53
2019-03-01T23:19:27.749Z,22.00
2019-03-01T23:24:23.003Z,19.90
2019-03-01T23:29:18.801Z,20.63
2019-03-01T23:34:14.551Z,18.90
2019-03-01T23:39:09.575Z,17.77
2019-03-01T23:44:06.502Z,17.30
2019-03-01T23:49:06.199Z,17.27
2019-03-01T23:53:57.760Z,17.57
2019-03-01T23:58:53.021Z,17.20
